Time;durP1;ratioP1;P1;durP2;ratioP2;P2;SDS_P1;SDS_P2;PMS_P1;PMS_P2;Temp;Humidity;BMP_temperature;BMP_pressure;BME280_temperature;BME280_humidity;BME280_pressure;Samples;Min_cycle;Max_cycle;Signal;HPM_P1;HPM_P2
2021/09/14 00:01:13;;;;;;;3.95;2.28;;;25.40;48.60;;;;;;6272500;28;20041;-82
2021/09/14 00:04:13;;;;;;;4.65;2.30;;;25.50;49.00;;;;;;6257814;28;20371;-82
2021/09/14 00:07:14;;;;;;;4.13;2.80;;;25.40;49.10;;;;;;6248702;28;20049;-82
2021/09/14 00:10:16;;;;;;;3.92;2.55;;;25.30;49.30;;;;;;6232467;28;20034;-82
2021/09/14 00:13:17;;;;;;;3.42;2.45;;;25.20;49.50;;;;;;6235636;28;20044;-82
2021/09/14 00:16:18;;;;;;;3.92;2.58;;;25.20;49.70;;;;;;6255456;28;20091;-82
2021/09/14 00:19:19;;;;;;;4.45;3.03;;;25.20;49.90;;;;;;6251807;28;20033;-82
2021/09/14 00:22:20;;;;;;;7.13;2.90;;;25.10;50.00;;;;;;6249896;28;20056;-82
2021/09/14 00:25:21;;;;;;;9.65;2.97;;;25.10;50.20;;;;;;6248305;28;20045;-81
2021/09/14 00:28:22;;;;;;;9.32;3.40;;;25.00;50.30;;;;;;6212894;28;20053;-81
2021/09/14 00:31:23;;;;;;;5.78;3.17;;;25.00;50.30;;;;;;6267782;28;20060;-82
2021/09/14 00:34:24;;;;;;;8.52;2.80;;;25.00;50.30;;;;;;6248892;28;20033;-82
2021/09/14 00:37:25;;;;;;;3.88;2.50;;;25.00;50.30;;;;;;6271793;28;20033;-81
2021/09/14 00:40:26;;;;;;;4.55;2.35;;;25.00;50.30;;;;;;6255354;28;20037;-82
2021/09/14 00:43:26;;;;;;;7.57;2.47;;;24.90;50.40;;;;;;6271844;28;20116;-81
2021/09/14 00:46:28;;;;;;;4.00;2.42;;;24.90;50.50;;;;;;6267846;28;20037;-81
2021/09/14 00:49:29;;;;;;;5.15;2.65;;;24.90;50.50;;;;;;6268868;28;20463;-81
2021/09/14 00:52:30;;;;;;;4.13;2.63;;;24.90;50.60;;;;;;6253233;28;20493;-81
2021/09/14 00:55:31;;;;;;;6.13;2.90;;;24.90;50.80;;;;;;6257385;28;20046;-82
2021/09/14 00:58:32;;;;;;;7.45;3.10;;;24.90;50.80;;;;;;6276630;28;20052;-82
2021/09/14 01:01:34;;;;;;;4.70;2.72;;;24.90;50.80;;;;;;6235274;28;20041;-81
2021/09/14 01:04:35;;;;;;;5.20;2.65;;;24.90;50.90;;;;;;6257879;28;20128;-82
2021/09/14 01:07:36;;;;;;;9.60;3.20;;;24.90;50.90;;;;;;6253128;28;20041;-81
2021/09/14 01:10:39;;;;;;;4.40;2.85;;;24.90;50.90;;;;;;6253091;28;20034;-82
2021/09/14 01:13:40;;;;;;;4.45;2.70;;;24.90;50.80;;;;;;6259511;28;20029;-81
2021/09/14 01:16:41;;;;;;;6.80;2.78;;;24.90;50.90;;;;;;6275430;28;20374;-82
2021/09/14 01:19:42;;;;;;;4.35;2.80;;;25.00;51.00;;;;;;6276711;28;20022;-81
2021/09/14 01:22:43;;;;;;;4.45;2.72;;;24.90;51.10;;;;;;6263322;28;20029;-81
2021/09/14 01:25:44;;;;;;;3.72;2.40;;;24.90;51.30;;;;;;6262012;28;20454;-81
2021/09/14 01:28:47;;;;;;;8.57;2.60;;;24.80;51.50;;;;;;6271707;28;20033;-82
2021/09/14 01:31:48;;;;;;;6.80;2.88;;;24.70;51.50;;;;;;6276381;28;20033;-81
2021/09/14 01:34:50;;;;;;;7.97;2.85;;;24.70;51.80;;;;;;6236493;28;20030;-82
2021/09/14 01:37:51;;;;;;;6.10;2.70;;;24.70;52.00;;;;;;6235832;28;20438;-82
2021/09/14 01:40:53;;;;;;;5.70;2.97;;;24.60;52.10;;;;;;6236395;28;20030;-82
2021/09/14 01:43:54;;;;;;;6.95;3.10;;;24.50;52.30;;;;;;6250443;28;20041;-82
2021/09/14 01:46:55;;;;;;;6.13;3.10;;;24.50;52.40;;;;;;6263051;28;20029;-81
2021/09/14 01:49:56;;;;;;;5.90;2.40;;;24.50;52.60;;;;;;6266439;28;20044;-82
2021/09/14 01:53:00;;;;;;;5.03;2.85;;;24.50;53.40;;;;;;6275819;28;20115;-82
2021/09/14 01:56:06;;;;;;;5.72;3.00;;;24.90;53.10;;;;;;6274796;28;20377;-82
2021/09/14 01:59:14;;;;;;;9.10;2.53;;;24.30;52.90;;;;;;6274818;28;20037;-81
2021/09/14 02:58:57;;;;;;;7.82;2.85;;;23.80;54.80;;;;;;6256293;28;20041;-81
2021/09/14 03:01:58;;;;;;;5.75;2.97;;;23.80;54.80;;;;;;6270492;28;20029;-81
2021/09/14 03:04:59;;;;;;;9.40;3.78;;;23.70;54.80;;;;;;6262942;28;20055;-81
2021/09/14 03:08:00;;;;;;;10.57;4.57;;;23.70;54.70;;;;;;6274152;28;20040;-81
2021/09/14 03:11:11;;;;;;;9.93;4.90;;;23.70;54.80;;;;;;6283875;28;20371;-81
2021/09/14 03:14:18;;;;;;;10.13;5.18;;;23.70;54.80;;;;;;6246082;28;20115;-82
2021/09/14 03:17:19;;;;;;;16.75;5.30;;;23.70;54.70;;;;;;6252360;28;20369;-82
2021/09/14 03:20:21;;;;;;;11.60;4.60;;;23.70;54.80;;;;;;6264018;28;20049;-81
2021/09/14 03:23:22;;;;;;;10.32;4.70;;;23.60;54.80;;;;;;6245730;28;20070;-83
2021/09/14 03:26:23;;;;;;;8.18;4.63;;;23.60;54.90;;;;;;6260315;28;20052;-82
2021/09/14 03:29:24;;;;;;;13.60;4.90;;;23.60;54.90;;;;;;6259707;28;20053;-81
2021/09/14 03:32:26;;;;;;;14.13;4.60;;;23.60;55.00;;;;;;6241561;28;20063;-81
2021/09/14 03:35:27;;;;;;;13.57;5.20;;;23.60;55.10;;;;;;6235039;28;20041;-81
2021/09/14 03:38:29;;;;;;;10.65;4.60;;;23.60;55.10;;;;;;6233267;28;20034;-82
2021/09/14 03:41:31;;;;;;;10.23;5.03;;;23.50;55.20;;;;;;6268229;28;20032;-81
2021/09/14 03:44:32;;;;;;;7.95;3.70;;;23.50;55.30;;;;;;6256829;28;20067;-82
2021/09/14 03:47:33;;;;;;;13.48;4.40;;;23.40;55.40;;;;;;6271133;28;20096;-81
2021/09/14 03:50:34;;;;;;;9.10;4.63;;;23.40;55.50;;;;;;6289735;28;20125;-80
2021/09/14 03:53:36;;;;;;;15.38;5.07;;;23.30;55.70;;;;;;6288758;28;20354;-80
2021/09/14 03:56:37;;;;;;;8.75;4.13;;;23.30;55.90;;;;;;6268438;28;20028;-81
2021/09/14 03:59:40;;;;;;;8.70;4.85;;;23.30;55.90;;;;;;6271423;28;20037;-81
2021/09/14 04:02:47;;;;;;;14.23;4.70;;;23.30;55.90;;;;;;6249691;28;20114;-81
2021/09/14 04:09:10;;;;;;;9.52;4.32;;;23.30;56.60;;;;;;6262318;28;20067;-81
2021/09/14 04:12:26;;;;;;;7.63;4.03;;;23.30;56.10;;;;;;6267988;28;20045;-81
2021/09/14 04:15:27;;;;;;;9.77;4.47;;;23.30;56.20;;;;;;6269218;28;20120;-80
2021/09/14 04:18:28;;;;;;;11.38;4.15;;;23.20;56.20;;;;;;6266803;28;20481;-80
2021/09/14 04:21:29;;;;;;;6.80;3.28;;;23.20;56.20;;;;;;6232839;28;20037;-82
2021/09/14 04:24:30;;;;;;;7.10;3.60;;;23.20;56.40;;;;;;6244377;28;20033;-81
2021/09/14 04:27:32;;;;;;;9.10;4.18;;;23.20;56.50;;;;;;6265076;28;20052;-81
2021/09/14 04:30:33;;;;;;;8.05;4.50;;;23.20;56.50;;;;;;6267812;28;20037;-80
2021/09/14 04:33:34;;;;;;;6.68;4.30;;;23.20;56.60;;;;;;6244530;28;20362;-80
2021/09/14 04:36:37;;;;;;;8.68;3.92;;;23.10;56.70;;;;;;6266662;28;20033;-81
2021/09/14 04:39:42;;;;;;;7.38;3.67;;;23.10;56.90;;;;;;6236209;28;20037;-81
2021/09/14 04:42:44;;;;;;;6.97;3.92;;;23.10;56.90;;;;;;6220011;28;20046;-81
2021/09/14 04:45:48;;;;;;;8.60;3.83;;;23.10;57.10;;;;;;6229513;28;20159;-81
2021/09/14 04:48:50;;;;;;;7.03;3.78;;;23.00;57.00;;;;;;6249168;28;20041;-82
2021/09/14 04:51:52;;;;;;;9.55;3.83;;;23.10;57.10;;;;;;6237933;28;20507;-81
2021/09/14 04:54:53;;;;;;;8.00;3.90;;;23.10;57.00;;;;;;6248704;28;20363;-82
2021/09/14 04:57:54;;;;;;;7.53;3.28;;;23.10;57.00;;;;;;6268183;28;20044;-80
2021/09/14 05:00:55;;;;;;;5.97;3.60;;;23.10;56.90;;;;;;6270963;28;20037;-80
2021/09/14 05:03:56;;;;;;;5.90;4.03;;;23.10;56.90;;;;;;6249356;28;20037;-81
2021/09/14 05:07:01;;;;;;;9.88;3.90;;;23.10;56.90;;;;;;6253212;28;20359;-81
2021/09/14 05:10:03;;;;;;;7.60;4.00;;;23.10;56.90;;;;;;6248983;28;20052;-81
2021/09/14 05:13:08;;;;;;;8.77;4.13;;;23.10;57.00;;;;;;6244358;28;20034;-83
2021/09/14 05:16:09;;;;;;;8.25;4.05;;;23.10;57.00;;;;;;6219020;28;20509;-84
2021/09/14 05:19:35;;;;;;;4.82;3.50;;;23.10;57.10;;;;;;6202645;28;20034;-82
2021/09/14 05:22:36;;;;;;;9.40;4.10;;;23.10;57.10;;;;;;6199287;28;20430;-83
2021/09/14 05:25:37;;;;;;;9.68;4.65;;;23.10;57.10;;;;;;6197854;28;20026;-80
2021/09/14 05:28:39;;;;;;;7.50;3.97;;;23.10;57.10;;;;;;6191442;28;20566;-83
2021/09/14 05:31:41;;;;;;;12.68;4.53;;;23.10;57.10;;;;;;6200437;28;20038;-82
2021/09/14 05:34:42;;;;;;;12.40;4.30;;;23.10;57.10;;;;;;6196020;28;20038;-85
2021/09/14 05:37:43;;;;;;;7.65;4.18;;;23.00;57.00;;;;;;6207577;28;20092;-83
2021/09/14 05:40:45;;;;;;;15.82;4.50;;;23.00;57.10;;;;;;6192678;28;20403;-83
2021/09/14 05:43:55;;;;;;;9.13;4.60;;;23.00;57.10;;;;;;6197358;28;20058;-81
2021/09/14 05:46:56;;;;;;;11.93;4.18;;;23.00;57.40;;;;;;6197037;28;20236;-81
2021/09/14 05:49:58;;;;;;;10.50;4.00;;;23.00;57.20;;;;;;6170915;28;20046;-80
2021/09/14 05:52:59;;;;;;;11.57;3.97;;;23.00;57.20;;;;;;6172760;28;20042;-80
2021/09/14 05:56:01;;;;;;;11.10;4.68;;;23.00;57.20;;;;;;6222936;28;20122;-81
2021/09/14 05:59:04;;;;;;;14.35;5.32;;;23.00;57.20;;;;;;6247134;28;20034;-80
2021/09/14 06:02:05;;;;;;;24.95;4.85;;;23.00;57.10;;;;;;6239263;28;20049;-81
2021/09/14 06:05:09;;;;;;;16.67;4.65;;;23.00;57.10;;;;;;6258750;28;20480;-80
2021/09/14 06:08:13;;;;;;;13.55;4.03;;;23.00;57.10;;;;;;6271204;28;20099;-80
2021/09/14 06:11:19;;;;;;;8.23;4.10;;;23.00;57.00;;;;;;6254360;28;20114;-80
2021/09/14 06:14:22;;;;;;;8.40;4.38;;;23.00;57.00;;;;;;6235835;28;20532;-81
2021/09/14 06:17:23;;;;;;;9.35;4.28;;;23.10;57.00;;;;;;6265832;28;20029;-81
2021/09/14 06:20:24;;;;;;;9.27;4.78;;;23.10;57.00;;;;;;6242059;28;20041;-80
2021/09/14 06:23:25;;;;;;;15.73;5.45;;;23.10;56.90;;;;;;6246705;28;20044;-82
2021/09/14 06:26:28;;;;;;;11.68;4.85;;;23.10;56.90;;;;;;6271640;28;20423;-80
2021/09/14 06:29:30;;;;;;;10.75;4.70;;;23.10;56.80;;;;;;6270875;28;20049;-80
2021/09/14 06:32:32;;;;;;;7.35;4.05;;;23.10;56.70;;;;;;6263079;28;20037;-81
2021/09/14 06:35:36;;;;;;;9.45;4.30;;;23.10;56.60;;;;;;6247412;28;20029;-81
2021/09/14 06:38:54;;;;;;;8.40;3.85;;;23.10;56.50;;;;;;6266502;28;20143;-81
2021/09/14 06:41:56;;;;;;;14.15;4.68;;;23.10;56.50;;;;;;6272411;28;20135;-81
2021/09/14 06:44:59;;;;;;;9.27;4.63;;;23.20;56.40;;;;;;6255085;28;20045;-81
2021/09/14 06:48:20;;;;;;;8.35;3.88;;;23.20;56.20;;;;;;6272035;28;20037;-79
2021/09/14 06:51:21;;;;;;;7.38;3.75;;;23.30;56.20;;;;;;6257491;28;20055;-80
2021/09/14 06:54:23;;;;;;;9.93;4.53;;;23.30;56.20;;;;;;6267503;28;20041;-80
2021/09/14 06:57:25;;;;;;;9.32;4.07;;;23.20;56.10;;;;;;6272402;28;20037;-81
2021/09/14 07:00:27;;;;;;;12.45;4.07;;;23.30;56.30;;;;;;6272388;28;20103;-81
2021/09/14 07:03:28;;;;;;;13.77;4.45;;;23.30;56.20;;;;;;6259190;28;20033;-80
2021/09/14 07:06:29;;;;;;;11.68;4.40;;;23.40;56.10;;;;;;6231140;28;20044;-80
2021/09/14 07:09:29;;;;;;;9.80;3.80;;;23.50;55.90;;;;;;6249393;28;20122;-80
2021/09/14 07:12:31;;;;;;;14.77;4.60;;;23.50;55.70;;;;;;6272474;28;20041;-81
2021/09/14 07:15:32;;;;;;;9.40;4.20;;;23.50;55.60;;;;;;6273066;28;20061;-80
2021/09/14 07:18:38;;;;;;;12.48;4.63;;;23.60;55.50;;;;;;6270993;28;20041;-81
2021/09/14 07:21:39;;;;;;;10.63;4.57;;;23.70;55.40;;;;;;6253672;28;20033;-80
2021/09/14 07:24:40;;;;;;;11.23;4.65;;;23.80;55.40;;;;;;6263372;28;20037;-80
2021/09/14 07:27:40;;;;;;;10.77;4.60;;;23.90;55.10;;;;;;6255184;28;20052;-80
2021/09/14 07:30:42;;;;;;;7.90;3.85;;;24.00;54.80;;;;;;6256236;28;20370;-80
2021/09/14 07:33:43;;;;;;;6.60;3.53;;;24.10;54.70;;;;;;6234662;28;20120;-80
2021/09/14 07:36:44;;;;;;;9.98;4.25;;;24.20;54.40;;;;;;6251727;28;20493;-79
2021/09/14 07:39:45;;;;;;;10.55;5.45;;;24.30;54.20;;;;;;6266719;28;20029;-80
2021/09/14 07:42:48;;;;;;;10.45;4.90;;;24.30;54.00;;;;;;6248000;28;20107;-80
2021/09/14 07:45:49;;;;;;;13.98;5.13;;;24.40;53.80;;;;;;6264516;28;20029;-80
2021/09/14 07:48:49;;;;;;;18.83;4.75;;;24.60;53.60;;;;;;6271143;28;20485;-80
2021/09/14 07:51:50;;;;;;;11.52;4.35;;;24.70;53.40;;;;;;6267760;28;20060;-80
2021/09/14 07:54:51;;;;;;;9.02;4.28;;;24.90;53.20;;;;;;6268325;28;20126;-80
2021/09/14 07:57:53;;;;;;;11.60;4.45;;;25.00;52.80;;;;;;6270127;28;20090;-80
2021/09/14 08:00:54;;;;;;;13.02;5.07;;;25.00;52.60;;;;;;6268682;28;20103;-81
2021/09/14 08:03:55;;;;;;;10.27;4.45;;;25.10;52.30;;;;;;6252060;28;20466;-81
2021/09/14 08:06:56;;;;;;;13.98;4.50;;;25.20;52.00;;;;;;6246963;28;20462;-80
2021/09/14 08:09:57;;;;;;;13.63;4.30;;;25.20;51.60;;;;;;6253220;28;20059;-79
2021/09/14 08:12:58;;;;;;;14.82;3.67;;;25.20;51.60;;;;;;6246641;28;20045;-80
2021/09/14 08:15:59;;;;;;;11.68;4.15;;;25.20;51.50;;;;;;6253549;28;20040;-81
2021/09/14 08:19:01;;;;;;;7.28;3.55;;;25.20;51.50;;;;;;6279056;28;20037;-82
2021/09/14 08:22:02;;;;;;;6.53;3.55;;;25.20;51.50;;;;;;6281751;28;20041;-79
2021/09/14 08:25:03;;;;;;;7.63;3.53;;;25.20;51.50;;;;;;6263069;28;20037;-79
2021/09/14 08:28:04;;;;;;;22.90;4.90;;;25.30;51.40;;;;;;6263461;28;20463;-80
2021/09/14 08:31:06;;;;;;;8.30;4.22;;;25.40;51.10;;;;;;6252348;28;20040;-80
2021/09/14 08:34:07;;;;;;;9.88;4.15;;;25.60;50.90;;;;;;6249727;28;20041;-80
2021/09/14 08:37:08;;;;;;;11.02;4.10;;;25.70;50.80;;;;;;6268075;28;20033;-81
2021/09/14 08:40:10;;;;;;;7.72;3.65;;;25.80;50.60;;;;;;6238474;28;20450;-81
2021/09/14 08:43:12;;;;;;;11.68;3.65;;;25.90;50.30;;;;;;6247528;28;20041;-80
2021/09/14 08:46:16;;;;;;;6.82;3.47;;;26.00;50.00;;;;;;6234866;28;20447;-80
2021/09/14 08:49:17;;;;;;;8.68;3.45;;;26.10;49.80;;;;;;6230643;28;20034;-81
2021/09/14 08:52:18;;;;;;;9.07;3.08;;;26.20;49.50;;;;;;6238793;28;20086;-80
2021/09/14 08:55:21;;;;;;;10.55;4.10;;;26.30;48.90;;;;;;6240141;28;20069;-80
2021/09/14 08:58:22;;;;;;;10.57;3.97;;;26.40;48.70;;;;;;6253275;28;20041;-80
2021/09/14 09:01:23;;;;;;;16.80;6.55;;;26.50;48.40;;;;;;6228211;28;20034;-80
2021/09/14 09:04:24;;;;;;;15.13;5.30;;;26.50;48.50;;;;;;6238623;28;20041;-80
2021/09/14 09:07:45;;;;;;;13.07;4.45;;;26.50;48.30;;;;;;6222921;28;20037;-80
2021/09/14 09:10:58;;;;;;;16.38;5.35;;;26.40;48.20;;;;;;6244401;28;20406;-79
2021/09/14 09:13:59;;;;;;;15.60;7.22;;;26.50;48.30;;;;;;6271698;28;20056;-81
2021/09/14 09:17:13;;;;;;;8.50;3.88;;;26.40;48.20;;;;;;6260306;28;20033;-80
2021/09/14 09:20:21;;;;;;;27.08;9.30;;;26.40;48.20;;;;;;6255939;28;20167;-80
2021/09/14 09:23:24;;;;;;;25.52;7.22;;;26.40;48.20;;;;;;6243341;28;20044;-80
2021/09/14 09:26:39;;;;;;;10.75;5.00;;;26.50;48.20;;;;;;6255245;28;20439;-80
2021/09/14 09:29:40;;;;;;;17.00;6.15;;;26.60;48.20;;;;;;6253331;28;20064;-79
2021/09/14 09:32:50;;;;;;;6.88;3.85;;;26.80;48.10;;;;;;6269903;28;20024;-80
2021/09/14 09:35:52;;;;;;;26.95;11.65;;;26.80;47.90;;;;;;6252868;28;20102;-80
2021/09/14 09:38:57;;;;;;;22.15;9.80;;;26.90;47.80;;;;;;6249209;28;20442;-79
2021/09/14 09:42:04;;;;;;;45.45;14.57;;;27.00;47.60;;;;;;6245709;28;20029;-79
2021/09/14 09:45:05;;;;;;;16.98;6.40;;;27.20;47.50;;;;;;6249503;28;20140;-82
2021/09/14 09:48:06;;;;;;;22.95;8.57;;;27.30;47.10;;;;;;6249861;28;20057;-80
2021/09/14 09:51:07;;;;;;;16.85;7.53;;;27.40;46.70;;;;;;6252420;28;20025;-80
2021/09/14 09:54:08;;;;;;;29.38;8.88;;;27.50;46.70;;;;;;6273413;28;20044;-81
2021/09/14 09:57:10;;;;;;;33.85;11.07;;;27.50;46.60;;;;;;6256057;28;20033;-79
2021/09/14 10:00:13;;;;;;;52.67;23.30;;;27.60;46.50;;;;;;6248119;28;20068;-80
2021/09/14 10:03:18;;;;;;;18.48;5.40;;;27.80;46.30;;;;;;6253160;28;20304;-81
2021/09/14 10:06:21;;;;;;;15.07;4.45;;;27.80;45.90;;;;;;6249456;28;20442;-80
2021/09/14 10:09:30;;;;;;;13.50;5.65;;;27.80;45.70;;;;;;6247415;28;20458;-81
2021/09/14 10:12:33;;;;;;;13.77;4.82;;;27.80;45.80;;;;;;6245623;28;20052;-80
2021/09/14 10:15:43;;;;;;;27.17;9.07;;;27.80;45.80;;;;;;6256279;28;20033;-81
2021/09/14 10:18:44;;;;;;;30.40;14.02;;;27.90;45.70;;;;;;6271282;28;20039;-81
2021/09/14 10:22:07;;;;;;;24.10;9.25;;;28.00;45.70;;;;;;6272018;28;20035;-81
2021/09/14 10:25:19;;;;;;;29.95;12.10;;;28.10;45.60;;;;;;6242422;28;20089;-83
2021/09/14 10:28:20;;;;;;;45.75;17.17;;;28.30;45.60;;;;;;6258848;28;20138;-81
2021/09/14 10:31:26;;;;;;;28.15;12.75;;;28.40;45.40;;;;;;6250032;28;20430;-81
2021/09/14 10:34:29;;;;;;;17.13;7.70;;;28.50;45.20;;;;;;6252204;28;20455;-81
2021/09/14 10:37:31;;;;;;;28.63;5.40;;;28.60;45.00;;;;;;6249195;28;20048;-81
2021/09/14 10:40:40;;;;;;;19.08;6.95;;;28.70;44.80;;;;;;6260550;28;20062;-80
2021/09/14 10:43:52;;;;;;;11.07;4.43;;;28.90;44.60;;;;;;6249526;28;20029;-81
2021/09/14 10:47:19;;;;;;;8.82;3.88;;;29.00;44.50;;;;;;6230425;28;20067;-81
2021/09/14 10:50:29;;;;;;;9.02;3.50;;;29.10;44.30;;;;;;6220952;28;20034;-81
2021/09/14 10:53:30;;;;;;;9.38;3.63;;;29.20;44.10;;;;;;6221636;28;20045;-81
2021/09/14 10:56:33;;;;;;;11.63;3.75;;;29.30;43.90;;;;;;6260135;28;20052;-80
2021/09/14 10:59:34;;;;;;;5.45;3.03;;;29.30;43.70;;;;;;6271969;28;20037;-80
2021/09/14 11:02:36;;;;;;;7.78;3.50;;;29.40;43.50;;;;;;6267811;28;20029;-81
2021/09/14 11:05:37;;;;;;;11.30;3.60;;;29.40;43.40;;;;;;6250963;28;20036;-81
2021/09/14 11:08:39;;;;;;;10.57;3.40;;;29.40;43.10;;;;;;6270940;28;20120;-80
2021/09/14 11:11:40;;;;;;;13.30;3.55;;;29.40;43.00;;;;;;6270724;28;20039;-81
2021/09/14 11:14:43;;;;;;;12.00;3.60;;;29.50;42.90;;;;;;6254160;28;20030;-81
2021/09/14 11:17:48;;;;;;;8.80;3.72;;;29.50;42.70;;;;;;6246027;28;20025;-81
2021/09/14 11:20:50;;;;;;;8.40;3.17;;;29.60;42.50;;;;;;6264358;28;20091;-81
2021/09/14 11:23:51;;;;;;;9.85;3.38;;;29.70;42.30;;;;;;6270464;28;20029;-82
2021/09/14 11:26:52;;;;;;;14.15;3.47;;;29.80;41.90;;;;;;6251923;28;20029;-81
2021/09/14 11:29:54;;;;;;;11.50;4.88;;;29.80;41.70;;;;;;6228970;28;20052;-80
2021/09/14 11:32:56;;;;;;;8.68;3.20;;;29.80;41.60;;;;;;6216750;28;20037;-79
2021/09/14 11:36:01;;;;;;;7.03;2.92;;;29.80;41.60;;;;;;6201462;28;20037;-78
2021/09/14 11:39:07;;;;;;;5.07;2.95;;;29.80;41.50;;;;;;6214976;28;20041;-78
2021/09/14 11:42:09;;;;;;;7.30;2.95;;;29.80;41.40;;;;;;6221537;28;20339;-79
2021/09/14 11:49:32;;;;;;;11.13;2.70;;;30.00;41.20;;;;;;6237438;28;20026;-79
2021/09/14 11:52:33;;;;;;;9.88;3.63;;;30.20;41.20;;;;;;6223226;28;20036;-80
2021/09/14 11:55:42;;;;;;;13.35;3.50;;;30.30;41.40;;;;;;6243338;28;20033;-78
2021/09/14 11:58:46;;;;;;;10.82;3.17;;;30.40;41.60;;;;;;6229625;28;20152;-79
2021/09/14 12:01:47;;;;;;;5.53;2.80;;;30.60;41.60;;;;;;6253956;28;20029;-78
2021/09/14 12:04:58;;;;;;;5.97;3.47;;;31.00;41.50;;;;;;6264195;28;20067;-79
2021/09/14 12:08:01;;;;;;;4.45;2.75;;;31.30;41.40;;;;;;6272297;28;20045;-79
2021/09/14 12:11:03;;;;;;;9.10;2.88;;;31.60;41.20;;;;;;6247911;28;20339;-79
2021/09/14 12:14:10;;;;;;;5.85;3.50;;;31.80;41.00;;;;;;6246626;28;20101;-80
2021/09/14 12:17:11;;;;;;;9.73;3.08;;;32.20;40.50;;;;;;6246953;28;20083;-79
2021/09/14 12:20:13;;;;;;;7.30;2.30;;;32.70;39.40;;;;;;6251080;28;20033;-80
2021/09/14 12:23:15;;;;;;;9.15;3.33;;;33.10;38.50;;;;;;6244208;28;20069;-79
2021/09/14 12:26:20;;;;;;;6.20;3.00;;;33.30;38.20;;;;;;6237825;28;20120;-79
2021/09/14 12:29:23;;;;;;;3.90;2.45;;;33.70;37.90;;;;;;6243387;28;20068;-79
2021/09/14 12:32:24;;;;;;;5.65;2.67;;;34.40;36.60;;;;;;6256221;28;20040;-79
2021/09/14 12:35:25;;;;;;;5.40;2.40;;;34.60;36.10;;;;;;6244988;28;20037;-80
2021/09/14 12:38:27;;;;;;;7.18;2.53;;;35.10;35.20;;;;;;6239893;28;20041;-79
2021/09/14 12:41:28;;;;;;;7.22;2.15;;;35.40;34.50;;;;;;6246557;28;20044;-79
2021/09/14 12:44:30;;;;;;;11.73;3.55;;;35.50;34.10;;;;;;6247386;28;20109;-79
2021/09/14 12:47:31;;;;;;;8.10;2.72;;;35.60;33.90;;;;;;6237471;28;20039;-79
2021/09/14 12:50:32;;;;;;;9.73;2.88;;;35.70;33.70;;;;;;6283975;28;20120;-79
2021/09/14 12:53:34;;;;;;;6.70;3.00;;;36.50;32.70;;;;;;6285706;28;20209;-79
2021/09/14 12:56:35;;;;;;;7.03;2.78;;;37.70;30.90;;;;;;6254383;28;20025;-80
2021/09/14 12:59:35;;;;;;;4.47;2.22;;;38.70;29.60;;;;;;6272886;28;20059;-80
2021/09/14 13:02:36;;;;;;;9.93;2.10;;;39.50;28.70;;;;;;6222280;28;20067;-78
2021/09/14 13:05:37;;;;;;;7.07;2.00;;;40.20;27.90;;;;;;6244962;28;20045;-79
2021/09/14 13:08:39;;;;;;;3.80;2.15;;;40.40;27.10;;;;;;6235128;28;20450;-79
2021/09/14 13:11:40;;;;;;;6.25;3.45;;;40.40;27.00;;;;;;6252329;28;20029;-80
2021/09/14 13:18:01;;;;;;;5.60;2.13;;;41.10;25.80;;;;;;6246312;28;20104;-81
2021/09/14 13:21:04;;;;;;;10.35;2.13;;;41.50;25.20;;;;;;6233205;28;20105;-82
2021/09/14 13:24:06;;;;;;;4.88;2.17;;;41.60;24.90;;;;;;6230860;28;20048;-80
2021/09/14 13:27:07;;;;;;;7.00;2.47;;;40.80;25.20;;;;;;6234792;28;20034;-80
2021/09/14 13:30:09;;;;;;;7.82;2.42;;;39.40;26.50;;;;;;6249519;28;20461;-79
2021/09/14 13:33:11;;;;;;;4.03;2.10;;;38.20;27.80;;;;;;6216329;28;20091;-80
2021/09/14 13:36:14;;;;;;;10.38;2.53;;;37.10;28.60;;;;;;6234348;28;20034;-80
2021/09/14 13:39:15;;;;;;;7.65;2.45;;;36.30;29.50;;;;;;6232331;28;20038;-80
2021/09/14 13:42:22;;;;;;;12.48;2.92;;;35.60;30.40;;;;;;6240137;28;20123;-80
2021/09/14 13:48:45;;;;;;;7.28;2.70;;;34.40;32.60;;;;;;6257483;28;20055;-81
2021/09/14 13:51:46;;;;;;;9.88;2.67;;;34.00;33.70;;;;;;6249102;28;20442;-79
2021/09/14 13:54:47;;;;;;;9.93;2.28;;;33.70;34.30;;;;;;6250975;28;20033;-80
2021/09/14 13:57:48;;;;;;;3.95;2.53;;;33.60;34.40;;;;;;6246728;28;20454;-80
2021/09/14 14:00:49;;;;;;;7.50;3.00;;;33.70;34.40;;;;;;6249088;28;20466;-80
2021/09/14 14:03:54;;;;;;;6.85;2.50;;;33.70;34.60;;;;;;6243413;28;20025;-81
2021/09/14 14:06:55;;;;;;;6.60;2.47;;;33.60;34.60;;;;;;6246897;28;20128;-79
2021/09/14 14:09:55;;;;;;;4.72;2.28;;;33.50;34.70;;;;;;6248332;28;20041;-82
2021/09/14 14:12:56;;;;;;;9.48;2.92;;;33.40;34.60;;;;;;6243890;28;20050;-80
2021/09/14 14:15:57;;;;;;;8.80;2.40;;;33.40;34.60;;;;;;6247941;28;20051;-79
2021/09/14 14:18:58;;;;;;;9.98;2.58;;;33.30;34.70;;;;;;6247551;28;20104;-80
2021/09/14 14:21:59;;;;;;;8.68;2.53;;;33.40;35.00;;;;;;6248309;28;20087;-79
2021/09/14 14:25:00;;;;;;;6.53;3.10;;;33.40;35.10;;;;;;6255197;28;20029;-80
2021/09/14 14:28:01;;;;;;;8.32;2.47;;;33.20;35.50;;;;;;6262257;28;20356;-79
2021/09/14 14:31:02;;;;;;;4.53;2.70;;;33.10;35.90;;;;;;6226754;28;20351;-80
2021/09/14 14:34:03;;;;;;;14.90;2.78;;;33.00;36.10;;;;;;6254643;28;20033;-80
2021/09/14 14:37:04;;;;;;;10.50;2.40;;;33.00;36.10;;;;;;6249843;28;20025;-80
2021/09/14 14:40:06;;;;;;;5.75;2.45;;;33.10;36.10;;;;;;6257119;28;20052;-79
2021/09/14 14:43:07;;;;;;;6.90;2.65;;;33.10;36.10;;;;;;6272811;28;20032;-79
2021/09/14 14:46:09;;;;;;;9.75;2.50;;;33.10;36.00;;;;;;6271565;28;20145;-80
2021/09/14 14:49:11;;;;;;;10.38;2.53;;;33.00;35.90;;;;;;6272342;28;20044;-79
2021/09/14 14:52:12;;;;;;;4.72;1.40;;;32.90;36.10;;;;;;6272585;28;20476;-80
2021/09/14 14:55:14;;;;;;;4.05;1.67;;;32.80;35.60;;;;;;6271858;28;20036;-79
2021/09/14 14:58:15;;;;;;;7.13;1.95;;;32.70;34.00;;;;;;6247599;28;20389;-80
2021/09/14 15:01:16;;;;;;;6.80;2.47;;;32.80;32.70;;;;;;6255457;28;20043;-79
2021/09/14 15:04:18;;;;;;;6.22;2.38;;;32.90;33.70;;;;;;6253501;28;20044;-83
2021/09/14 15:07:19;;;;;;;4.95;1.88;;;32.90;34.30;;;;;;6230611;28;20356;-84
2021/09/14 15:10:20;;;;;;;6.53;2.35;;;32.90;33.80;;;;;;6256502;28;20037;-83
2021/09/14 15:13:21;;;;;;;5.53;1.60;;;32.80;34.00;;;;;;6254898;28;20025;-82
2021/09/14 15:16:22;;;;;;;6.68;1.67;;;32.80;33.70;;;;;;6265746;28;20051;-82
2021/09/14 15:19:23;;;;;;;6.50;1.08;;;32.90;32.30;;;;;;6271203;28;20482;-81
2021/09/14 15:22:24;;;;;;;4.40;1.50;;;33.00;31.40;;;;;;6251847;28;20089;-82
2021/09/14 15:25:27;;;;;;;3.20;1.27;;;33.00;30.50;;;;;;6249581;28;20048;-81
2021/09/14 15:28:28;;;;;;;4.47;1.67;;;33.10;30.20;;;;;;6263427;28;20094;-81
2021/09/14 15:31:30;;;;;;;4.63;1.83;;;33.20;30.00;;;;;;6271606;28;20040;-80
2021/09/14 15:34:31;;;;;;;9.27;1.70;;;33.20;29.60;;;;;;6257730;28;20079;-81
2021/09/14 15:37:33;;;;;;;4.15;1.50;;;33.30;29.50;;;;;;6233437;28;20030;-77
2021/09/14 15:40:34;;;;;;;4.88;1.52;;;33.30;29.40;;;;;;6215736;28;20120;-78
2021/09/14 15:43:36;;;;;;;9.10;1.60;;;33.30;29.30;;;;;;6233333;28;20037;-77
2021/09/14 15:46:37;;;;;;;7.40;1.55;;;33.30;29.10;;;;;;6238570;28;20037;-79
2021/09/14 15:49:38;;;;;;;2.95;1.50;;;33.20;28.90;;;;;;6231923;28;20345;-79
2021/09/14 15:52:39;;;;;;;5.20;1.42;;;33.20;29.00;;;;;;6267305;28;20056;-79
2021/09/14 15:55:40;;;;;;;14.65;1.88;;;33.20;29.20;;;;;;6245869;28;20045;-79
2021/09/14 15:58:43;;;;;;;4.30;1.42;;;33.10;29.10;;;;;;6246277;28;20040;-78
2021/09/14 16:01:46;;;;;;;6.88;1.48;;;33.10;29.30;;;;;;6247125;28;20033;-81
2021/09/14 16:04:46;;;;;;;8.55;2.30;;;33.10;29.40;;;;;;6240020;28;20040;-79
2021/09/14 16:07:48;;;;;;;4.10;1.33;;;33.10;29.40;;;;;;6254362;28;20459;-79
2021/09/14 16:10:48;;;;;;;4.63;1.70;;;33.10;29.30;;;;;;6238952;28;20392;-79
2021/09/14 16:13:49;;;;;;;4.35;1.50;;;33.10;29.20;;;;;;6246330;28;20028;-78
2021/09/14 16:16:50;;;;;;;3.30;1.42;;;33.10;29.30;;;;;;6269505;28;20480;-80
2021/09/14 16:19:51;;;;;;;4.53;1.40;;;33.10;29.40;;;;;;6258186;28;20442;-78
2021/09/14 16:22:53;;;;;;;4.88;1.63;;;32.90;29.90;;;;;;6246226;28;20044;-78
2021/09/14 16:25:54;;;;;;;8.90;1.80;;;32.60;30.40;;;;;;6229538;28;20327;-79
2021/09/14 16:28:55;;;;;;;9.15;2.03;;;32.40;30.40;;;;;;6239055;28;20398;-80
2021/09/14 16:31:59;;;;;;;3.92;1.45;;;32.20;30.40;;;;;;6246051;28;20045;-78
2021/09/14 16:35:00;;;;;;;7.13;2.72;;;32.00;30.50;;;;;;6263022;28;20060;-77
2021/09/14 16:38:01;;;;;;;5.05;2.17;;;32.10;30.60;;;;;;6270601;28;20371;-79
2021/09/14 16:41:03;;;;;;;7.18;2.42;;;32.10;30.70;;;;;;6264849;28;20098;-79
2021/09/14 16:44:04;;;;;;;7.07;1.77;;;32.10;30.90;;;;;;6244642;28;20344;-77
2021/09/14 16:47:05;;;;;;;6.05;2.20;;;32.00;31.00;;;;;;6265734;28;20103;-77
2021/09/14 16:50:07;;;;;;;4.45;1.75;;;31.90;31.00;;;;;;6252931;28;20427;-77
2021/09/14 16:53:09;;;;;;;7.20;1.73;;;31.90;31.10;;;;;;6262960;28;20057;-76
2021/09/14 16:56:10;;;;;;;7.70;1.88;;;31.90;31.20;;;;;;6247978;28;20034;-76